createdAt,value
2023-01-25T00:00:02.885Z,90.6
2023-01-25T00:15:02.156Z,90.7
2023-01-25T00:30:02.623Z,90.9
2023-01-25T00:45:03.041Z,90.8
2023-01-25T01:00:02.487Z,90.8
2023-01-25T01:15:02.917Z,90.7
2023-01-25T01:30:02.333Z,90.8
2023-01-25T01:45:02.929Z,90.9
2023-01-25T02:00:02.253Z,90.9
2023-01-25T02:15:02.658Z,90.9
2023-01-25T02:30:03.099Z,91.1
2023-01-25T02:45:02.512Z,91.2
2023-01-25T03:00:02.974Z,91.2
2023-01-25T03:15:02.392Z,91.3
2023-01-25T03:30:02.960Z,91.7
2023-01-25T03:45:02.269Z,92.1
2023-01-25T04:00:02.886Z,92.4
2023-01-25T04:15:02.128Z,92.8
2023-01-25T04:30:02.542Z,93.1
2023-01-25T04:45:03.004Z,93.4
2023-01-25T05:00:02.484Z,93.9
2023-01-25T05:15:02.981Z,94.0
2023-01-25T05:30:02.290Z,94.2
2023-01-25T05:45:02.730Z,94.5
2023-01-25T06:00:03.177Z,95.0
2023-01-25T06:15:02.599Z,95.2
2023-01-25T06:30:03.061Z,95.3
2023-01-25T06:45:02.484Z,95.6
2023-01-25T07:00:03.050Z,95.9
2023-01-25T07:15:02.361Z,96.0
2023-01-25T07:30:02.989Z,96.2
2023-01-25T07:45:02.233Z,96.4
2023-01-25T08:00:02.694Z,96.4
2023-01-25T08:15:03.113Z,96.5
2023-01-25T08:30:02.544Z,96.6
2023-01-25T08:45:03.033Z,96.6
2023-01-25T09:00:02.446Z,96.6
2023-01-25T09:15:03.053Z,96.5
2023-01-25T09:30:04.163Z,96.3
2023-01-25T09:45:02.733Z,96.2
2023-01-25T10:00:04.155Z,96.0
2023-01-25T10:15:02.608Z,95.8
2023-01-25T10:30:03.068Z,95.5
2023-01-25T10:45:02.460Z,95.3
2023-01-25T11:00:03.074Z,95.1
2023-01-25T11:15:02.342Z,94.7
2023-01-25T11:30:02.824Z,94.3
2023-01-25T11:45:03.261Z,94.1
2023-01-25T12:00:02.930Z,93.7
2023-01-25T12:15:02.158Z,93.0
2023-01-25T12:30:02.561Z,92.6
2023-01-25T12:45:03.090Z,92.4
2023-01-25T13:00:02.438Z,92.2
2023-01-25T13:15:03.086Z,91.9
2023-01-25T13:30:02.288Z,91.7
2023-01-25T13:45:02.732Z,91.6
2023-01-25T14:00:10.193Z,91.5
2023-01-25T14:15:02.572Z,91.4
2023-01-25T14:30:03.139Z,91.4
2023-01-25T14:45:02.486Z,91.5
2023-01-25T15:00:03.145Z,91.4
2023-01-25T15:15:02.325Z,91.5
2023-01-25T15:30:02.899Z,91.7
2023-01-25T15:45:02.183Z,92.0
2023-01-25T16:00:02.866Z,92.1
2023-01-25T16:15:02.177Z,92.1
2023-01-25T16:30:02.503Z,92.2
2023-01-25T16:45:03.162Z,92.6
2023-01-25T17:00:03.418Z,92.9
2023-01-25T17:15:02.813Z,93.0
2023-01-25T17:30:02.270Z,93.2
2023-01-25T17:45:02.683Z,93.6
2023-01-25T18:00:03.204Z,94.0
2023-01-25T18:15:02.563Z,94.2
2023-01-25T18:30:03.192Z,94.2
2023-01-25T18:45:02.440Z,94.3
2023-01-25T19:00:02.905Z,94.3
2023-01-25T19:15:02.298Z,94.4
2023-01-25T19:30:02.727Z,94.4
2023-01-25T19:45:03.211Z,94.4
2023-01-25T20:00:02.620Z,94.5
2023-01-25T20:15:03.202Z,94.5
2023-01-25T20:30:02.482Z,94.5
2023-01-25T20:45:02.944Z,94.6
2023-01-25T21:00:02.332Z,94.7
2023-01-25T21:15:02.795Z,94.7
2023-01-25T21:30:02.245Z,94.9
2023-01-25T21:45:02.645Z,95.0
2023-01-25T22:00:03.242Z,95.2
2023-01-25T22:15:02.535Z,95.4
2023-01-25T22:30:02.968Z,95.5
2023-01-25T22:45:02.406Z,95.7
2023-01-25T23:00:02.846Z,95.8
2023-01-25T23:15:02.301Z,95.9
2023-01-25T23:30:02.722Z,96.1
2023-01-25T23:45:03.273Z,96.2
